METAR Data
IDs: Format: Raw Decoded Include TAF

Data at: 0218 UTC 10 Dec 2022

METAR for:KDAY (Dayton/Cox Intl, OH, US)
Text:KDAY 100156Z 03005KT 3SM BR FEW008 OVC013 06/04 A3014 RMK AO2 SLP212 T00560039
Temperature: 5.6°C ( 42°F)
Dewpoint: 3.9°C ( 39°F) [RH = 89%]
Pressure (altimeter):30.14 inches Hg (1020.7 mb) [Sea level pressure: 1021.2 mb]
Winds:from the NNE (30 degrees) at 6 MPH (5 knots; 2.6 m/s)
Visibility: 3 sm ( 5 km)
Ceiling:1300 feet AGL
Clouds: few clouds at 800 feet AGL, overcast cloud deck at 1300 feet AGL
Weather:BR (mist)